Time;durP1;ratioP1;P1;durP2;ratioP2;P2;SDS_P1;SDS_P2;PMS_P1;PMS_P2;Temp;Humidity;BMP_temperature;BMP_pressure;BME280_temperature;BME280_humidity;BME280_pressure;Samples;Min_cycle;Max_cycle;Signal;HPM_P1;HPM_P2
2021/08/11 00:00:15;;;;;;;;;;;17.70;98.90;;;;;;5072751;28;19931;-66
2021/08/11 00:02:42;;;;;;;;;;;17.90;98.60;;;;;;5072478;28;19912;-66
2021/08/11 00:05:09;;;;;;;;;;;18.00;98.50;;;;;;5072761;28;20363;-66
2021/08/11 00:07:35;;;;;;;;;;;18.00;98.40;;;;;;5072586;28;20344;-65
2021/08/11 00:10:03;;;;;;;;;;;17.90;98.50;;;;;;5072606;28;19944;-65
2021/08/11 00:12:29;;;;;;;;;;;18.10;98.60;;;;;;5072912;28;19920;-65
2021/08/11 00:14:56;;;;;;;;;;;18.30;98.40;;;;;;5072639;28;19908;-65
2021/08/11 00:17:23;;;;;;;;;;;18.40;97.00;;;;;;5072705;28;19949;-65
2021/08/11 00:19:50;;;;;;;;;;;18.50;97.00;;;;;;5072158;28;20235;-65
2021/08/11 00:22:17;;;;;;;;;;;18.40;97.00;;;;;;5072692;28;19908;-65
2021/08/11 00:24:43;;;;;;;;;;;18.50;96.60;;;;;;5072371;28;20366;-66
2021/08/11 00:27:10;;;;;;;;;;;18.50;97.00;;;;;;5072472;28;19915;-66
2021/08/11 00:29:37;;;;;;;;;;;18.80;96.60;;;;;;5054349;28;20283;-65
2021/08/11 00:32:03;;;;;;;;;;;18.90;96.30;;;;;;5072615;28;20402;-66
2021/08/11 00:34:30;;;;;;;;;;;19.00;96.20;;;;;;5072722;28;19915;-65
2021/08/11 00:36:57;;;;;;;;;;;19.00;96.20;;;;;;5071193;28;19909;-65
2021/08/11 00:39:23;;;;;;;;;;;19.10;96.10;;;;;;5072430;28;20703;-65
2021/08/11 00:41:50;;;;;;;;;;;19.10;95.90;;;;;;5072214;28;20308;-65
2021/08/11 00:44:17;;;;;;;;;;;19.00;96.20;;;;;;5072575;28;20335;-65
2021/08/11 00:46:45;;;;;;;;;;;19.00;96.20;;;;;;5072043;28;20322;-65
2021/08/11 00:49:13;;;;;;;;;;;19.20;95.90;;;;;;5072405;28;19919;-67
2021/08/11 00:51:40;;;;;;;;;;;19.30;95.60;;;;;;5071979;28;19916;-67
2021/08/11 00:54:11;;;;;;;;;;;19.30;95.70;;;;;;5072227;28;19909;-68
2021/08/11 00:56:39;;;;;;;;;;;19.20;95.60;;;;;;5072356;28;20367;-66
2021/08/11 00:59:07;;;;;;;;;;;19.20;95.60;;;;;;5072535;28;19908;-66
2021/08/11 01:01:37;;;;;;;;;;;19.50;95.60;;;;;;5072170;28;19916;-67
2021/08/11 01:04:04;;;;;;;;;;;19.50;95.30;;;;;;5072239;28;20300;-66
2021/08/11 01:06:31;;;;;;;;;;;19.60;95.40;;;;;;5072045;28;19961;-65
2021/08/11 01:08:58;;;;;;;;;;;19.60;95.30;;;;;;5054194;28;19909;-67
2021/08/11 01:11:25;;;;;;;;;;;20.00;94.80;;;;;;5076301;28;19942;-66
2021/08/11 01:13:52;;;;;;;;;;;20.50;93.90;;;;;;5075431;28;19916;-67
2021/08/11 01:16:18;;;;;;;;;;;20.90;93.30;;;;;;5076232;28;20381;-67
2021/08/11 01:18:45;;;;;;;;;;;21.20;92.70;;;;;;5075944;28;20061;-68
2021/08/11 01:21:18;;;;;;;;;;;21.20;92.60;;;;;;5075967;28;19941;-67
2021/08/11 01:23:48;;;;;;;;;;;21.20;92.70;;;;;;5074509;28;19971;-66
2021/08/11 01:26:19;;;;;;;;;;;21.70;92.10;;;;;;5075511;28;19909;-66
2021/08/11 01:29:06;;;;;;;;;;;21.70;92.30;;;;;;5076381;28;20308;-66
2021/08/11 01:31:41;;;;;;;;;;;21.90;91.60;;;;;;5075370;28;20058;-66
2021/08/11 01:34:10;;;;;;;;;;;21.70;91.30;;;;;;5076000;28;20342;-66
2021/08/11 01:36:43;;;;;;;;;;;21.30;92.00;;;;;;5075608;28;19908;-66
2021/08/11 01:39:19;;;;;;;;;;;20.90;92.60;;;;;;5075976;28;20355;-66
2021/08/11 01:41:53;;;;;;;;;;;20.80;92.70;;;;;;5075132;28;19931;-66
2021/08/11 01:44:21;;;;;;;;;;;20.70;92.70;;;;;;5075670;28;20406;-67
2021/08/11 01:46:48;;;;;;;;;;;20.70;93.00;;;;;;5075409;28;19921;-66
2021/08/11 01:49:16;;;;;;;;;;;20.70;93.10;;;;;;5075639;28;19908;-66
2021/08/11 01:51:45;;;;;;;;;;;20.60;93.20;;;;;;5075201;28;19919;-68
2021/08/11 01:54:12;;;;;;;;;;;20.80;93.20;;;;;;5075467;28;20363;-65
2021/08/11 01:56:45;;;;;;;;;;;20.80;92.80;;;;;;5075422;28;19913;-67
2021/08/11 01:59:12;;;;;;;;;;;20.70;92.80;;;;;;5075257;28;19908;-66
2021/08/11 02:01:42;;;;;;;;;;;20.60;93.20;;;;;;5075041;28;19916;-66
2021/08/11 02:04:09;;;;;;;;;;;20.60;93.20;;;;;;5075091;28;19917;-67
2021/08/11 02:06:36;;;;;;;;;;;20.60;93.20;;;;;;5075180;28;20282;-66
2021/08/11 02:09:04;;;;;;;;;;;20.50;93.10;;;;;;5075187;28;19915;-67
2021/08/11 02:11:31;;;;;;;;;;;20.60;92.80;;;;;;5075009;28;19960;-67
2021/08/11 02:13:59;;;;;;;;;;;20.50;92.90;;;;;;5075132;28;19908;-68
2021/08/11 02:16:26;;;;;;;;;;;20.70;92.80;;;;;;5075048;28;19916;-67
2021/08/11 02:18:54;;;;;;;;;;;20.60;92.80;;;;;;5075130;28;19913;-68
2021/08/11 02:21:21;;;;;;;;;;;20.60;92.90;;;;;;5074024;28;19934;-65
2021/08/11 02:23:47;;;;;;;;;;;20.60;93.20;;;;;;5074830;28;19908;-66
2021/08/11 02:26:24;;;;;;;;;;;21.00;92.20;;;;;;5074964;28;19908;-65
2021/08/11 02:28:53;;;;;;;;;;;20.90;92.50;;;;;;5075009;28;19913;-67
2021/08/11 02:31:26;;;;;;;;;;;20.90;92.80;;;;;;5074738;28;19948;-65
2021/08/11 02:34:17;;;;;;;;;;;20.90;92.30;;;;;;5074400;28;19956;-67
2021/08/11 02:36:53;;;;;;;;;;;20.90;92.60;;;;;;5074757;28;19931;-65
2021/08/11 02:39:24;;;;;;;;;;;20.80;92.50;;;;;;5074909;28;19915;-65
2021/08/11 02:42:03;;;;;;;;;;;20.70;92.70;;;;;;5074577;28;19952;-67
2021/08/11 02:44:41;;;;;;;;;;;20.90;92.90;;;;;;5074545;28;19908;-66
2021/08/11 02:47:08;;;;;;;;;;;20.90;92.70;;;;;;5074249;28;20012;-67
2021/08/11 02:49:35;;;;;;;;;;;20.90;92.60;;;;;;5074146;28;19935;-65
2021/08/11 02:52:02;;;;;;;;;;;20.90;92.30;;;;;;5074452;28;20347;-66
2021/08/11 02:54:29;;;;;;;;;;;20.80;92.90;;;;;;5074250;28;19919;-66
2021/08/11 02:56:57;;;;;;;;;;;20.90;92.80;;;;;;5074478;28;20339;-65
2021/08/11 02:59:24;;;;;;;;;;;21.00;92.50;;;;;;5074226;28;19908;-65
2021/08/11 03:01:51;;;;;;;;;;;21.10;92.50;;;;;;5072786;28;20363;-66
2021/08/11 03:04:18;;;;;;;;;;;21.00;92.90;;;;;;5073888;28;19960;-65
2021/08/11 03:06:45;;;;;;;;;;;21.20;92.60;;;;;;5073892;28;19915;-65
2021/08/11 03:09:12;;;;;;;;;;;21.20;92.70;;;;;;5074026;28;19915;-67
2021/08/11 03:11:39;;;;;;;;;;;21.30;92.50;;;;;;5073602;28;20078;-65
2021/08/11 03:14:07;;;;;;;;;;;21.20;92.80;;;;;;5073813;28;19908;-65
2021/08/11 03:16:40;;;;;;;;;;;21.20;92.50;;;;;;5073828;28;20351;-66
2021/08/11 03:19:07;;;;;;;;;;;21.30;92.30;;;;;;5073725;28;19995;-66
2021/08/11 03:21:34;;;;;;;;;;;21.30;92.30;;;;;;5073435;28;19909;-66
2021/08/11 03:24:01;;;;;;;;;;;21.30;92.60;;;;;;5073866;28;20363;-65
2021/08/11 03:26:28;;;;;;;;;;;21.30;92.60;;;;;;5073895;28;19908;-65
2021/08/11 03:28:59;;;;;;;;;;;21.30;92.50;;;;;;5073811;28;20007;-65
2021/08/11 03:31:26;;;;;;;;;;;21.30;92.40;;;;;;5055711;28;19912;-66
2021/08/11 03:33:53;;;;;;;;;;;21.30;92.50;;;;;;5073069;28;20283;-66
2021/08/11 03:36:20;;;;;;;;;;;21.40;92.40;;;;;;5073488;28;20363;-65
2021/08/11 03:38:47;;;;;;;;;;;21.50;91.60;;;;;;5073541;28;19915;-66
2021/08/11 03:41:13;;;;;;;;;;;21.30;91.50;;;;;;5073242;28;19908;-65
2021/08/11 03:43:40;;;;;;;;;;;21.40;91.70;;;;;;5073139;28;19921;-66
2021/08/11 03:46:07;;;;;;;;;;;21.50;92.00;;;;;;5073257;28;19952;-66
2021/08/11 03:48:33;;;;;;;;;;;21.40;91.70;;;;;;5073415;28;19908;-65
2021/08/11 03:51:00;;;;;;;;;;;21.40;91.40;;;;;;5073145;28;19915;-65
2021/08/11 03:53:27;;;;;;;;;;;21.30;91.80;;;;;;5073175;28;19909;-66
2021/08/11 03:55:53;;;;;;;;;;;21.30;91.90;;;;;;5072989;28;19908;-66
2021/08/11 03:58:20;;;;;;;;;;;21.20;92.20;;;;;;5072945;28;19908;-67
2021/08/11 04:00:47;;;;;;;;;;;21.30;92.00;;;;;;5073239;28;19990;-67
2021/08/11 04:03:13;;;;;;;;;;;21.30;92.30;;;;;;5072933;28;20360;-65
2021/08/11 04:05:40;;;;;;;;;;;21.40;91.70;;;;;;5072666;28;20279;-65
2021/08/11 04:08:07;;;;;;;;;;;21.30;91.30;;;;;;5072900;28;19944;-66
2021/08/11 04:10:33;;;;;;;;;;;21.40;91.10;;;;;;5072906;28;19914;-66
2021/08/11 04:13:00;;;;;;;;;;;21.50;90.40;;;;;;5072881;28;19920;-66
2021/08/11 04:15:27;;;;;;;;;;;21.50;90.30;;;;;;5072877;28;19934;-66
2021/08/11 04:17:53;;;;;;;;;;;21.50;90.40;;;;;;5072743;28;19909;-66
2021/08/11 04:20:20;;;;;;;;;;;21.60;90.40;;;;;;5072701;28;20367;-66
2021/08/11 04:22:47;;;;;;;;;;;21.60;90.20;;;;;;5072848;28;19995;-68
2021/08/11 04:25:14;;;;;;;;;;;21.50;90.20;;;;;;5072578;28;19915;-66
2021/08/11 04:27:42;;;;;;;;;;;21.40;90.70;;;;;;5072703;28;19913;-65
2021/08/11 04:30:09;;;;;;;;;;;21.30;90.40;;;;;;5072772;28;19916;-66
2021/08/11 04:32:35;;;;;;;;;;;21.30;90.20;;;;;;5072698;28;19956;-66
2021/08/11 04:35:06;;;;;;;;;;;21.50;89.90;;;;;;5072293;28;19938;-65
2021/08/11 04:37:33;;;;;;;;;;;21.60;90.00;;;;;;5072299;28;19913;-66
2021/08/11 04:40:00;;;;;;;;;;;21.60;89.70;;;;;;5072451;28;19959;-65
2021/08/11 04:42:26;;;;;;;;;;;21.60;89.20;;;;;;5071139;28;19912;-66
2021/08/11 04:44:53;;;;;;;;;;;21.80;89.20;;;;;;5053930;28;20367;-66
2021/08/11 04:47:20;;;;;;;;;;;21.80;89.10;;;;;;5072145;28;20260;-67
2021/08/11 04:49:46;;;;;;;;;;;21.60;89.10;;;;;;5072351;28;20354;-65
2021/08/11 04:52:13;;;;;;;;;;;21.60;89.00;;;;;;5072180;28;19916;-67
2021/08/11 04:54:40;;;;;;;;;;;21.60;90.00;;;;;;5072339;28;19909;-66
2021/08/11 04:57:06;;;;;;;;;;;21.80;88.60;;;;;;5072331;28;19909;-67
2021/08/11 04:59:33;;;;;;;;;;;21.60;88.50;;;;;;5072096;28;19912;-66
2021/08/11 05:02:00;;;;;;;;;;;21.50;88.80;;;;;;5071891;28;19970;-66
2021/08/11 05:04:27;;;;;;;;;;;21.60;88.90;;;;;;5071965;28;19908;-66
2021/08/11 05:06:54;;;;;;;;;;;21.50;88.50;;;;;;5072097;28;20022;-66
2021/08/11 05:09:21;;;;;;;;;;;21.40;88.90;;;;;;5072346;28;19995;-66
2021/08/11 05:11:47;;;;;;;;;;;21.40;87.90;;;;;;5072043;28;19920;-67
2021/08/11 05:14:14;;;;;;;;;;;21.40;88.80;;;;;;5072181;28;19924;-65
2021/08/11 05:16:41;;;;;;;;;;;21.50;87.60;;;;;;5072152;28;19999;-66
2021/08/11 05:19:07;;;;;;;;;;;21.70;87.20;;;;;;5071926;28;19917;-67
2021/08/11 05:21:35;;;;;;;;;;;21.70;86.90;;;;;;5071843;28;19909;-66
2021/08/11 05:24:02;;;;;;;;;;;21.60;86.80;;;;;;5072123;28;19931;-67
2021/08/11 05:26:29;;;;;;;;;;;21.50;87.30;;;;;;5071895;28;20016;-65
2021/08/11 05:28:55;;;;;;;;;;;21.30;87.80;;;;;;5071956;28;19908;-65
2021/08/11 05:31:22;;;;;;;;;;;21.40;87.50;;;;;;5071982;28;19917;-66
2021/08/11 05:33:49;;;;;;;;;;;21.60;87.90;;;;;;5053381;28;19912;-66
2021/08/11 05:36:15;;;;;;;;;;;21.50;87.10;;;;;;5071806;28;19991;-66
2021/08/11 05:38:42;;;;;;;;;;;21.50;86.70;;;;;;5071837;28;19909;-67
2021/08/11 05:41:09;;;;;;;;;;;21.40;87.20;;;;;;5071845;28;19912;-67
2021/08/11 05:43:35;;;;;;;;;;;21.40;87.60;;;;;;5071533;28;19962;-66
2021/08/11 05:46:02;;;;;;;;;;;21.50;86.80;;;;;;5071615;28;19934;-66
2021/08/11 05:48:29;;;;;;;;;;;21.40;87.10;;;;;;5071819;28;19916;-66
2021/08/11 05:50:56;;;;;;;;;;;21.30;87.60;;;;;;5071718;28;19944;-66
2021/08/11 05:53:23;;;;;;;;;;;21.30;87.90;;;;;;5071783;28;19916;-66
2021/08/11 05:55:50;;;;;;;;;;;21.30;87.20;;;;;;5071696;28;19923;-66
2021/08/11 05:58:16;;;;;;;;;;;21.50;86.40;;;;;;5075332;28;19909;-67
2021/08/11 06:00:43;;;;;;;;;;;21.50;85.50;;;;;;5075424;28;19954;-67
2021/08/11 06:03:10;;;;;;;;;;;21.50;85.10;;;;;;5075331;28;20189;-67
2021/08/11 06:05:37;;;;;;;;;;;21.50;85.50;;;;;;5075142;28;19912;-65
2021/08/11 06:08:04;;;;;;;;;;;21.40;85.90;;;;;;5075214;28;19909;-67
2021/08/11 06:10:31;;;;;;;;;;;21.40;85.10;;;;;;5075305;28;19962;-66
2021/08/11 06:12:57;;;;;;;;;;;21.40;85.00;;;;;;5075318;28;19917;-67
2021/08/11 06:15:24;;;;;;;;;;;21.40;85.60;;;;;;5074000;28;19908;-67
2021/08/11 06:17:51;;;;;;;;;;;21.30;85.80;;;;;;5074669;28;19909;-67
2021/08/11 06:20:19;;;;;;;;;;;21.30;85.70;;;;;;5075003;28;19999;-67
2021/08/11 06:22:46;;;;;;;;;;;21.20;85.70;;;;;;5074929;28;19908;-67
2021/08/11 06:25:14;;;;;;;;;;;21.20;85.90;;;;;;5075098;28;20315;-67
2021/08/11 06:27:40;;;;;;;;;;;21.20;86.90;;;;;;5074848;28;19953;-68
2021/08/11 06:30:08;;;;;;;;;;;21.00;86.80;;;;;;5074740;28;19915;-66
2021/08/11 06:32:34;;;;;;;;;;;21.00;87.30;;;;;;5074740;28;19967;-67
2021/08/11 06:35:01;;;;;;;;;;;21.00;86.50;;;;;;5074745;28;19909;-66
2021/08/11 06:37:27;;;;;;;;;;;20.90;87.20;;;;;;5074377;28;19969;-66
2021/08/11 06:39:54;;;;;;;;;;;20.90;86.30;;;;;;5074382;28;19912;-66
2021/08/11 06:42:21;;;;;;;;;;;20.90;86.70;;;;;;5074604;28;20047;-65
2021/08/11 06:44:47;;;;;;;;;;;20.90;87.10;;;;;;5074606;28;19954;-67
2021/08/11 06:47:14;;;;;;;;;;;20.90;86.70;;;;;;5074245;28;19927;-67
2021/08/11 06:49:41;;;;;;;;;;;20.90;87.60;;;;;;5073997;28;20351;-66
2021/08/11 06:52:07;;;;;;;;;;;20.90;87.90;;;;;;5071973;28;20249;-66
2021/08/11 06:54:34;;;;;;;;;;;20.70;88.80;;;;;;5072388;28;19970;-65
2021/08/11 06:57:01;;;;;;;;;;;20.60;89.10;;;;;;5072302;28;20363;-66
2021/08/11 06:59:27;;;;;;;;;;;20.50;89.90;;;;;;5072326;28;20248;-65
2021/08/11 07:01:54;;;;;;;;;;;20.50;90.30;;;;;;5071883;28;19912;-66
2021/08/11 07:04:21;;;;;;;;;;;20.40;90.40;;;;;;5071650;28;19916;-67
2021/08/11 07:06:47;;;;;;;;;;;20.50;90.50;;;;;;5071826;28;19909;-66
2021/08/11 07:09:16;;;;;;;;;;;20.40;90.70;;;;;;5071659;28;20046;-66
2021/08/11 07:11:42;;;;;;;;;;;20.50;90.70;;;;;;5071794;28;19921;-65
2021/08/11 07:14:09;;;;;;;;;;;20.40;90.80;;;;;;5071918;28;20324;-66
2021/08/11 07:16:37;;;;;;;;;;;20.30;91.10;;;;;;5071916;28;19908;-66
2021/08/11 07:19:04;;;;;;;;;;;20.20;91.30;;;;;;5071168;28;19967;-67
2021/08/11 07:21:30;;;;;;;;;;;20.20;91.60;;;;;;5071509;28;19908;-66
2021/08/11 07:23:57;;;;;;;;;;;20.20;91.70;;;;;;5071585;28;20315;-67
2021/08/11 07:26:24;;;;;;;;;;;20.10;91.70;;;;;;5071552;28;19999;-66
2021/08/11 07:28:50;;;;;;;;;;;20.10;91.80;;;;;;5071597;28;19909;-67
2021/08/11 07:31:17;;;;;;;;;;;20.00;91.90;;;;;;5071321;28;19912;-66
2021/08/11 07:33:43;;;;;;;;;;;20.00;92.10;;;;;;5071101;28;19913;-66
2021/08/11 07:36:10;;;;;;;;;;;19.90;92.30;;;;;;5071037;28;19912;-66
2021/08/11 07:38:37;;;;;;;;;;;19.90;92.30;;;;;;5070142;28;20016;-66
2021/08/11 07:41:03;;;;;;;;;;;19.90;92.40;;;;;;5071286;28;19913;-66
2021/08/11 07:43:30;;;;;;;;;;;19.90;92.60;;;;;;5071043;28;19912;-66
2021/08/11 07:45:57;;;;;;;;;;;19.90;92.70;;;;;;5071062;28;20386;-65
2021/08/11 07:48:23;;;;;;;;;;;19.80;92.80;;;;;;5071033;28;20011;-66
2021/08/11 07:50:50;;;;;;;;;;;19.70;93.00;;;;;;5071417;28;19909;-66
2021/08/11 07:53:17;;;;;;;;;;;19.70;93.20;;;;;;5071335;28;19921;-67
2021/08/11 07:55:43;;;;;;;;;;;19.60;93.40;;;;;;5070973;28;19913;-65
2021/08/11 07:58:10;;;;;;;;;;;19.50;93.50;;;;;;5070712;28;19913;-66
2021/08/11 08:00:36;;;;;;;;;;;19.50;93.70;;;;;;5070992;28;19931;-65
2021/08/11 08:03:04;;;;;;;;;;;19.50;93.90;;;;;;5070760;28;19962;-66
2021/08/11 08:05:30;;;;;;;;;;;19.40;93.80;;;;;;5070739;28;20281;-64
2021/08/11 08:07:57;;;;;;;;;;;19.40;93.80;;;;;;5070824;28;19912;-66
2021/08/11 08:10:24;;;;;;;;;;;19.40;93.90;;;;;;5070658;28;20281;-64
2021/08/11 08:12:50;;;;;;;;;;;19.40;93.90;;;;;;5070799;28;20448;-64
2021/08/11 08:15:17;;;;;;;;;;;19.30;94.10;;;;;;5070843;28;20376;-65
2021/08/11 08:17:44;;;;;;;;;;;19.30;94.20;;;;;;5070465;28;20402;-65
2021/08/11 08:20:11;;;;;;;;;;;19.30;94.20;;;;;;5069930;28;19955;-64
2021/08/11 08:22:39;;;;;;;;;;;19.20;94.50;;;;;;5070215;28;20332;-64
2021/08/11 08:25:06;;;;;;;;;;;19.20;94.60;;;;;;5070367;28;19998;-65
2021/08/11 08:27:33;;;;;;;;;;;19.20;94.70;;;;;;5070221;28;20351;-66
2021/08/11 08:29:59;;;;;;;;;;;19.20;94.80;;;;;;5070386;28;20386;-65
2021/08/11 08:32:30;;;;;;;;;;;19.10;94.80;;;;;;5070523;28;20418;-64
2021/08/11 08:34:56;;;;;;;;;;;19.10;95.00;;;;;;5070288;28;19918;-64
2021/08/11 08:37:27;;;;;;;;;;;19.10;95.10;;;;;;5070417;28;19942;-64
2021/08/11 08:39:53;;;;;;;;;;;19.00;95.10;;;;;;5070309;28;20381;-64
2021/08/11 08:42:20;;;;;;;;;;;19.00;95.40;;;;;;5070308;28;19912;-64
2021/08/11 08:44:47;;;;;;;;;;;19.00;95.50;;;;;;5070296;28;19971;-64
2021/08/11 08:47:15;;;;;;;;;;;18.90;95.70;;;;;;5069200;28;19966;-64
2021/08/11 08:49:44;;;;;;;;;;;18.90;95.80;;;;;;5069914;28;19909;-65
2021/08/11 08:52:10;;;;;;;;;;;18.80;95.70;;;;;;5069689;28;19943;-64
2021/08/11 08:54:37;;;;;;;;;;;18.80;95.90;;;;;;5070131;28;20003;-64
2021/08/11 08:57:04;;;;;;;;;;;18.90;95.90;;;;;;5070217;28;19948;-64
2021/08/11 08:59:30;;;;;;;;;;;18.80;95.70;;;;;;5070066;28;19909;-65
2021/08/11 09:01:57;;;;;;;;;;;18.90;95.70;;;;;;5069581;28;19908;-64
2021/08/11 09:04:24;;;;;;;;;;;18.90;95.70;;;;;;5069753;28;19912;-65
2021/08/11 09:06:50;;;;;;;;;;;18.90;95.50;;;;;;5072034;28;19909;-65
2021/08/11 09:09:17;;;;;;;;;;;18.90;95.70;;;;;;5072328;28;19977;-64
2021/08/11 09:11:44;;;;;;;;;;;18.90;95.70;;;;;;5071535;28;19928;-65
2021/08/11 09:14:22;;;;;;;;;;;18.90;95.80;;;;;;5072059;28;19916;-65
2021/08/11 09:16:53;;;;;;;;;;;18.90;96.20;;;;;;5071993;28;19916;-64
2021/08/11 09:19:20;;;;;;;;;;;18.80;95.90;;;;;;5072033;28;19919;-64
2021/08/11 09:22:00;;;;;;;;;;;18.80;95.90;;;;;;5071659;28;19915;-65
2021/08/11 09:24:27;;;;;;;;;;;18.80;95.80;;;;;;5072032;28;19978;-65
2021/08/11 09:26:54;;;;;;;;;;;18.80;95.80;;;;;;5072037;28;19913;-65
2021/08/11 09:29:22;;;;;;;;;;;18.80;95.80;;;;;;5071913;28;19916;-64
2021/08/11 09:31:48;;;;;;;;;;;18.70;95.90;;;;;;5074522;28;19984;-68
2021/08/11 09:34:15;;;;;;;;;;;18.70;95.90;;;;;;5075717;28;19934;-66
2021/08/11 09:36:51;;;;;;;;;;;18.70;95.90;;;;;;5075982;28;20038;-66
2021/08/11 09:39:18;;;;;;;;;;;18.70;96.00;;;;;;5075937;28;19913;-66
2021/08/11 09:42:05;;;;;;;;;;;18.70;96.10;;;;;;5057523;28;19917;-67
2021/08/11 09:44:33;;;;;;;;;;;18.60;95.90;;;;;;5075487;28;20034;-66
2021/08/11 09:47:18;;;;;;;;;;;18.60;96.00;;;;;;5075162;28;19956;-67
2021/08/11 09:50:05;;;;;;;;;;;18.60;96.00;;;;;;5075408;28;19912;-65
2021/08/11 09:52:52;;;;;;;;;;;18.50;95.90;;;;;;5075329;28;19916;-64
2021/08/11 09:55:19;;;;;;;;;;;18.60;95.90;;;;;;5075272;28;19912;-64
2021/08/11 09:57:46;;;;;;;;;;;18.50;96.40;;;;;;5075319;28;19908;-63
2021/08/11 10:00:14;;;;;;;;;;;18.40;96.00;;;;;;5075096;28;19912;-66
2021/08/11 10:02:41;;;;;;;;;;;18.40;95.80;;;;;;5075172;28;19912;-66
2021/08/11 10:05:28;;;;;;;;;;;18.50;95.90;;;;;;5075249;28;19908;-67
2021/08/11 10:07:55;;;;;;;;;;;18.40;95.90;;;;;;5064497;28;19908;-67
2021/08/11 10:10:21;;;;;;;;;;;18.40;95.90;;;;;;5074844;28;19966;-65
2021/08/11 10:12:49;;;;;;;;;;;18.40;95.90;;;;;;5075031;28;19928;-65
2021/08/11 10:15:16;;;;;;;;;;;18.40;95.90;;;;;;5075050;28;19914;-65
2021/08/11 10:17:43;;;;;;;;;;;18.40;95.90;;;;;;5074914;28;20432;-66
2021/08/11 10:20:10;;;;;;;;;;;18.40;95.80;;;;;;5075137;28;19919;-66
2021/08/11 10:22:41;;;;;;;;;;;18.40;95.70;;;;;;5074849;28;19909;-66
2021/08/11 10:25:08;;;;;;;;;;;18.40;95.60;;;;;;5074347;28;19909;-65
2021/08/11 10:27:35;;;;;;;;;;;18.40;95.70;;;;;;5074615;28;19908;-67
2021/08/11 10:30:01;;;;;;;;;;;18.40;96.00;;;;;;5074996;28;19909;-66
2021/08/11 10:32:28;;;;;;;;;;;18.40;95.80;;;;;;5074555;28;19922;-65
2021/08/11 10:34:57;;;;;;;;;;;18.30;95.90;;;;;;5074521;28;19909;-66
2021/08/11 10:37:24;;;;;;;;;;;18.30;95.90;;;;;;5074768;28;20347;-66
2021/08/11 10:39:52;;;;;;;;;;;18.30;95.90;;;;;;5073840;28;20018;-65
2021/08/11 10:42:18;;;;;;;;;;;18.40;95.90;;;;;;5073901;28;19909;-67
2021/08/11 10:44:46;;;;;;;;;;;18.40;95.70;;;;;;5074645;28;19970;-66
2021/08/11 10:47:13;;;;;;;;;;;18.40;96.10;;;;;;5074083;28;19927;-65
2021/08/11 10:50:00;;;;;;;;;;;18.30;95.80;;;;;;5073976;28;20322;-65
2021/08/11 10:52:27;;;;;;;;;;;18.30;96.00;;;;;;5074067;28;19916;-67
2021/08/11 10:54:58;;;;;;;;;;;18.30;96.00;;;;;;5073891;28;20282;-65
2021/08/11 10:57:37;;;;;;;;;;;;;;;;;;;;;
2021/08/11 11:00:07;;;;;;;;;;;18.30;96.00;;;;;;5074246;28;19931;-65
2021/08/11 11:02:40;;;;;;;;;;;18.30;96.10;;;;;;5074341;28;19909;-65
2021/08/11 11:05:08;;;;;;;;;;;18.30;96.10;;;;;;5089873;28;20460;-68
2021/08/11 11:07:35;;;;;;;;;;;18.30;96.00;;;;;;5074014;28;19909;-65
2021/08/11 11:10:19;;;;;;;;;;;18.20;96.10;;;;;;5073562;28;19909;-64
2021/08/11 11:12:46;;;;;;;;;;;18.20;96.30;;;;;;5074149;28;20003;-65
2021/08/11 11:15:13;;;;;;;;;;;18.20;96.10;;;;;;5074050;28;19970;-65
2021/08/11 11:17:58;;;;;;;;;;;18.20;96.20;;;;;;5073616;28;19951;-65
2021/08/11 11:20:25;;;;;;;;;;;18.20;96.30;;;;;;5074282;28;20374;-64
2021/08/11 11:22:55;;;;;;;;;;;18.20;96.30;;;;;;5073745;28;19912;-64
2021/08/11 11:25:40;;;;;;;;;;;18.20;96.30;;;;;;5073949;28;19999;-65
2021/08/11 11:28:07;;;;;;;;;;;18.20;96.30;;;;;;5073957;28;19908;-64
2021/08/11 11:30:34;;;;;;;;;;;18.20;96.30;;;;;;5074070;28;19952;-65
2021/08/11 11:33:31;;;;;;;;;;;18.20;96.30;;;;;;5073529;28;19923;-64
2021/08/11 11:36:18;;;;;;;;;;;18.20;96.30;;;;;;5061249;28;19908;-65
2021/08/11 11:39:05;;;;;;;;;;;18.20;96.30;;;;;;5073028;28;20266;-66
2021/08/11 11:41:31;;;;;;;;;;;18.20;96.30;;;;;;5073183;28;19916;-66
2021/08/11 11:44:18;;;;;;;;;;;18.20;96.30;;;;;;5073716;28;19974;-67
2021/08/11 11:46:48;;;;;;;;;;;18.20;96.50;;;;;;5073054;28;20367;-65
2021/08/11 11:49:18;;;;;;;;;;;18.10;96.40;;;;;;5073236;28;19908;-65
2021/08/11 11:51:44;;;;;;;;;;;18.20;96.60;;;;;;5073218;28;20348;-65
2021/08/11 11:54:11;;;;;;;;;;;18.10;96.60;;;;;;5071438;28;19916;-66
2021/08/11 11:56:38;;;;;;;;;;;18.10;96.60;;;;;;5073036;28;19909;-65
2021/08/11 11:59:05;;;;;;;;;;;18.10;96.70;;;;;;5073212;28;19915;-65
2021/08/11 12:01:36;;;;;;;;;;;18.10;96.70;;;;;;5072855;28;19944;-66
2021/08/11 12:04:02;;;;;;;;;;;18.10;96.80;;;;;;5074707;28;19909;-65
2021/08/11 12:06:40;;;;;;;;;;;18.00;96.80;;;;;;5090882;28;20011;-66
2021/08/11 12:09:07;;;;;;;;;;;18.00;96.80;;;;;;5072817;28;20362;-66
2021/08/11 12:11:35;;;;;;;;;;;18.00;96.80;;;;;;5072585;28;20268;-65
2021/08/11 12:14:02;;;;;;;;;;;18.10;96.70;;;;;;5073054;28;19909;-65
2021/08/11 12:16:36;;;;;;;;;;;18.00;96.80;;;;;;5072603;28;19919;-65
2021/08/11 12:19:09;;;;;;;;;;;18.00;96.80;;;;;;5073010;28;19916;-66
2021/08/11 12:21:36;;;;;;;;;;;18.00;96.90;;;;;;5072694;28;19908;-66
2021/08/11 12:24:03;;;;;;;;;;;18.00;97.10;;;;;;5072900;28;20390;-65
2021/08/11 12:26:30;;;;;;;;;;;18.00;97.00;;;;;;5071421;28;20223;-65
2021/08/11 12:28:58;;;;;;;;;;;18.00;97.10;;;;;;5072606;28;20323;-65
2021/08/11 12:31:33;;;;;;;;;;;18.00;97.10;;;;;;5072380;28;20514;-66
2021/08/11 12:34:01;;;;;;;;;;;18.00;97.00;;;;;;5072632;28;19913;-66
2021/08/11 12:36:31;;;;;;;;;;;17.90;97.10;;;;;;5072553;28;19915;-65
2021/08/11 12:39:01;;;;;;;;;;;18.00;97.30;;;;;;5072489;28;20453;-66
2021/08/11 12:41:29;;;;;;;;;;;17.90;97.20;;;;;;5072463;28;19915;-65
2021/08/11 12:43:56;;;;;;;;;;;18.00;97.20;;;;;;5072439;28;19915;-65
2021/08/11 12:46:46;;;;;;;;;;;18.00;97.20;;;;;;5072018;28;20332;-66
2021/08/11 12:49:22;;;;;;;;;;;18.00;97.20;;;;;;5072274;28;19962;-65
2021/08/11 12:52:22;;;;;;;;;;;18.00;97.10;;;;;;5072006;28;19918;-65
2021/08/11 12:54:52;;;;;;;;;;;17.90;97.30;;;;;;5072316;28;20434;-65
2021/08/11 12:57:19;;;;;;;;;;;17.90;97.30;;;;;;5072290;28;19908;-66
2021/08/11 12:59:53;;;;;;;;;;;17.90;97.50;;;;;;5070270;28;19916;-66
2021/08/11 13:02:21;;;;;;;;;;;17.90;97.30;;;;;;5092172;28;20304;-66
2021/08/11 13:04:48;;;;;;;;;;;17.90;97.40;;;;;;5091939;28;19958;-67
2021/08/11 13:07:14;;;;;;;;;;;18.00;97.10;;;;;;5092160;28;19973;-65
2021/08/11 13:09:41;;;;;;;;;;;18.00;97.20;;;;;;5092379;28;19914;-66
2021/08/11 13:12:08;;;;;;;;;;;18.00;97.40;;;;;;5092116;28;19920;-65
2021/08/11 13:14:47;;;;;;;;;;;17.90;97.50;;;;;;5092138;28;20377;-66
2021/08/11 13:17:15;;;;;;;;;;;17.90;97.20;;;;;;5092301;28;19996;-65
2021/08/11 13:19:42;;;;;;;;;;;17.90;97.40;;;;;;5092057;28;19919;-66
2021/08/11 13:22:22;;;;;;;;;;;17.90;97.30;;;;;;5092137;28;19918;-65
2021/08/11 13:24:50;;;;;;;;;;;17.90;97.30;;;;;;5092055;28;20009;-66
2021/08/11 13:27:18;;;;;;;;;;;17.90;97.30;;;;;;5074359;28;19915;-66
2021/08/11 13:29:44;;;;;;;;;;;17.90;97.50;;;;;;5092181;28;19962;-65
2021/08/11 13:32:11;;;;;;;;;;;17.90;97.50;;;;;;5091970;28;19957;-66
2021/08/11 13:34:38;;;;;;;;;;;18.00;97.40;;;;;;5091975;28;19908;-65
2021/08/11 13:37:05;;;;;;;;;;;18.00;97.50;;;;;;5092038;28;19908;-64
2021/08/11 13:39:31;;;;;;;;;;;18.00;97.30;;;;;;5092006;28;20358;-64
2021/08/11 13:41:58;;;;;;;;;;;18.00;97.30;;;;;;5092213;28;19909;-65
2021/08/11 13:44:25;;;;;;;;;;;17.90;97.40;;;;;;5092131;28;19908;-65
2021/08/11 13:46:51;;;;;;;;;;;17.90;97.60;;;;;;5091979;28;19924;-65
2021/08/11 13:49:18;;;;;;;;;;;17.80;97.60;;;;;;5092256;28;19912;-65
2021/08/11 13:51:45;;;;;;;;;;;17.80;97.70;;;;;;5091576;28;19939;-65
2021/08/11 13:54:11;;;;;;;;;;;17.70;97.90;;;;;;5091964;28;20450;-65
2021/08/11 13:56:38;;;;;;;;;;;17.70;97.80;;;;;;5091876;28;20381;-66
2021/08/11 13:59:05;;;;;;;;;;;17.70;98.00;;;;;;5091839;28;19908;-65
2021/08/11 14:01:31;;;;;;;;;;;17.70;98.00;;;;;;5091680;28;19960;-66
2021/08/11 14:03:58;;;;;;;;;;;17.70;98.00;;;;;;5091870;28;20008;-66
2021/08/11 14:06:25;;;;;;;;;;;17.70;97.80;;;;;;5091959;28;19908;-65
2021/08/11 14:08:51;;;;;;;;;;;17.80;97.70;;;;;;5073886;28;19908;-65
2021/08/11 14:11:18;;;;;;;;;;;17.90;97.70;;;;;;5091859;28;20263;-66
2021/08/11 14:13:45;;;;;;;;;;;17.90;97.70;;;;;;5091409;28;19912;-65
2021/08/11 14:16:12;;;;;;;;;;;17.80;97.70;;;;;;5073466;28;19908;-66
2021/08/11 14:18:38;;;;;;;;;;;17.80;97.80;;;;;;5094365;28;20302;-66
2021/08/11 14:21:05;;;;;;;;;;;17.80;97.80;;;;;;5095461;28;20362;-65
2021/08/11 14:23:31;;;;;;;;;;;17.80;97.70;;;;;;5095199;28;19996;-66
2021/08/11 14:25:58;;;;;;;;;;;17.70;97.80;;;;;;5095405;28;19941;-66